sensor_id;sensor_type;location;lat;lon;timestamp;P1;durP1;ratioP1;P2;durP2;ratioP2
67074;SDS011;53990;50.334;18.640;2022-12-05T00:01:22;87.10;;;47.30;;
67074;SDS011;53990;50.334;18.640;2022-12-05T00:03:56;92.00;;;47.60;;
67074;SDS011;53990;50.334;18.640;2022-12-05T00:06:25;88.20;;;46.60;;
67074;SDS011;53990;50.334;18.640;2022-12-05T00:08:54;87.60;;;46.00;;
67074;SDS011;53990;50.334;18.640;2022-12-05T00:11:25;88.60;;;47.30;;
67074;SDS011;53990;50.334;18.640;2022-12-05T00:13:55;86.30;;;47.60;;
67074;SDS011;53990;50.334;18.640;2022-12-05T00:16:24;90.60;;;48.30;;
67074;SDS011;53990;50.334;18.640;2022-12-05T00:18:52;88.20;;;46.90;;
67074;SDS011;53990;50.334;18.640;2022-12-05T00:21:22;84.50;;;45.70;;
67074;SDS011;53990;50.334;18.640;2022-12-05T00:23:51;86.30;;;46.10;;
67074;SDS011;53990;50.334;18.640;2022-12-05T00:26:19;85.50;;;45.40;;
67074;SDS011;53990;50.334;18.640;2022-12-05T00:28:47;85.90;;;45.50;;
67074;SDS011;53990;50.334;18.640;2022-12-05T00:31:18;87.60;;;45.80;;
67074;SDS011;53990;50.334;18.640;2022-12-05T00:33:46;85.90;;;46.20;;
67074;SDS011;53990;50.334;18.640;2022-12-05T00:36:22;84.80;;;44.30;;
67074;SDS011;53990;50.334;18.640;2022-12-05T00:38:49;87.00;;;45.00;;
67074;SDS011;53990;50.334;18.640;2022-12-05T00:41:22;83.60;;;42.60;;
67074;SDS011;53990;50.334;18.640;2022-12-05T00:43:51;83.70;;;43.70;;
67074;SDS011;53990;50.334;18.640;2022-12-05T00:46:23;77.80;;;43.00;;
67074;SDS011;53990;50.334;18.640;2022-12-05T00:48:52;69.40;;;39.20;;
67074;SDS011;53990;50.334;18.640;2022-12-05T00:51:23;77.30;;;42.20;;
67074;SDS011;53990;50.334;18.640;2022-12-05T00:53:54;74.90;;;39.90;;
67074;SDS011;53990;50.334;18.640;2022-12-05T00:56:23;72.70;;;39.60;;
67074;SDS011;53990;50.334;18.640;2022-12-05T00:58:52;68.70;;;37.80;;
67074;SDS011;53990;50.334;18.640;2022-12-05T01:01:22;66.00;;;36.70;;
67074;SDS011;53990;50.334;18.640;2022-12-05T01:03:53;62.60;;;34.80;;
67074;SDS011;53990;50.334;18.640;2022-12-05T01:06:21;68.80;;;36.00;;
67074;SDS011;53990;50.334;18.640;2022-12-05T01:08:49;63.90;;;34.90;;
67074;SDS011;53990;50.334;18.640;2022-12-05T01:11:18;56.70;;;34.60;;
67074;SDS011;53990;50.334;18.640;2022-12-05T01:13:46;60.00;;;35.10;;
67074;SDS011;53990;50.334;18.640;2022-12-05T01:16:16;63.10;;;36.30;;
67074;SDS011;53990;50.334;18.640;2022-12-05T01:18:44;63.60;;;36.10;;
67074;SDS011;53990;50.334;18.640;2022-12-05T01:21:11;65.60;;;37.00;;
67074;SDS011;53990;50.334;18.640;2022-12-05T01:23:39;58.90;;;33.50;;
67074;SDS011;53990;50.334;18.640;2022-12-05T01:26:09;62.00;;;35.90;;
67074;SDS011;53990;50.334;18.640;2022-12-05T01:28:37;60.60;;;35.70;;
67074;SDS011;53990;50.334;18.640;2022-12-05T01:31:06;63.20;;;36.00;;
67074;SDS011;53990;50.334;18.640;2022-12-05T01:33:34;58.90;;;34.10;;
67074;SDS011;53990;50.334;18.640;2022-12-05T01:36:02;56.50;;;32.40;;
67074;SDS011;53990;50.334;18.640;2022-12-05T01:38:30;61.40;;;33.90;;
67074;SDS011;53990;50.334;18.640;2022-12-05T01:41:05;59.50;;;33.60;;
67074;SDS011;53990;50.334;18.640;2022-12-05T01:43:32;57.50;;;32.90;;
67074;SDS011;53990;50.334;18.640;2022-12-05T01:46:18;54.00;;;32.50;;
67074;SDS011;53990;50.334;18.640;2022-12-05T01:48:45;54.80;;;31.70;;
67074;SDS011;53990;50.334;18.640;2022-12-05T01:51:13;58.80;;;32.50;;
67074;SDS011;53990;50.334;18.640;2022-12-05T01:53:40;56.10;;;32.20;;
67074;SDS011;53990;50.334;18.640;2022-12-05T01:56:08;62.30;;;34.90;;
67074;SDS011;53990;50.334;18.640;2022-12-05T01:58:36;55.40;;;31.30;;
67074;SDS011;53990;50.334;18.640;2022-12-05T02:01:05;60.60;;;34.50;;
67074;SDS011;53990;50.334;18.640;2022-12-05T02:03:32;58.30;;;33.50;;
67074;SDS011;53990;50.334;18.640;2022-12-05T02:06:00;62.00;;;34.50;;
67074;SDS011;53990;50.334;18.640;2022-12-05T02:08:27;61.00;;;35.00;;
67074;SDS011;53990;50.334;18.640;2022-12-05T02:10:56;60.10;;;33.90;;
67074;SDS011;53990;50.334;18.640;2022-12-05T02:18:51;60.90;;;34.50;;
67074;SDS011;53990;50.334;18.640;2022-12-05T02:21:49;58.90;;;33.10;;
67074;SDS011;53990;50.334;18.640;2022-12-05T02:27:26;65.20;;;35.50;;
67074;SDS011;53990;50.334;18.640;2022-12-05T02:30:40;65.00;;;36.30;;
67074;SDS011;53990;50.334;18.640;2022-12-05T02:44:32;64.40;;;35.20;;
67074;SDS011;53990;50.334;18.640;2022-12-05T02:46:57;65.30;;;35.60;;
67074;SDS011;53990;50.334;18.640;2022-12-05T02:49:30;63.60;;;35.80;;
67074;SDS011;53990;50.334;18.640;2022-12-05T02:51:59;62.60;;;36.30;;
67074;SDS011;53990;50.334;18.640;2022-12-05T02:54:31;63.50;;;35.90;;
67074;SDS011;53990;50.334;18.640;2022-12-05T02:56:59;60.60;;;34.70;;
67074;SDS011;53990;50.334;18.640;2022-12-05T02:59:27;62.80;;;34.80;;
67074;SDS011;53990;50.334;18.640;2022-12-05T03:01:55;64.60;;;35.40;;
67074;SDS011;53990;50.334;18.640;2022-12-05T03:04:24;61.40;;;34.50;;
67074;SDS011;53990;50.334;18.640;2022-12-05T03:09:32;61.70;;;35.70;;
67074;SDS011;53990;50.334;18.640;2022-12-05T03:12:08;64.00;;;36.40;;
67074;SDS011;53990;50.334;18.640;2022-12-05T03:14:41;63.00;;;35.40;;
67074;SDS011;53990;50.334;18.640;2022-12-05T03:17:14;60.20;;;35.00;;
67074;SDS011;53990;50.334;18.640;2022-12-05T03:19:54;63.10;;;36.70;;
67074;SDS011;53990;50.334;18.640;2022-12-05T03:22:30;64.40;;;37.30;;
67074;SDS011;53990;50.334;18.640;2022-12-05T03:24:59;66.10;;;36.20;;
67074;SDS011;53990;50.334;18.640;2022-12-05T03:27:49;61.20;;;33.60;;
67074;SDS011;53990;50.334;18.640;2022-12-05T03:30:20;59.80;;;33.10;;
67074;SDS011;53990;50.334;18.640;2022-12-05T03:33:10;65.60;;;36.20;;
67074;SDS011;53990;50.334;18.640;2022-12-05T03:35:44;60.40;;;34.10;;
67074;SDS011;53990;50.334;18.640;2022-12-05T03:38:32;62.00;;;35.70;;
67074;SDS011;53990;50.334;18.640;2022-12-05T03:41:13;61.50;;;35.30;;
67074;SDS011;53990;50.334;18.640;2022-12-05T03:43:51;63.70;;;36.00;;
67074;SDS011;53990;50.334;18.640;2022-12-05T03:46:23;56.90;;;33.30;;
67074;SDS011;53990;50.334;18.640;2022-12-05T03:51:28;61.90;;;34.60;;
67074;SDS011;53990;50.334;18.640;2022-12-05T03:53:59;59.00;;;33.90;;
67074;SDS011;53990;50.334;18.640;2022-12-05T03:56:43;58.00;;;33.10;;
67074;SDS011;53990;50.334;18.640;2022-12-05T03:59:26;59.20;;;33.50;;
67074;SDS011;53990;50.334;18.640;2022-12-05T04:01:57;59.00;;;35.40;;
67074;SDS011;53990;50.334;18.640;2022-12-05T04:04:33;56.60;;;32.70;;
67074;SDS011;53990;50.334;18.640;2022-12-05T04:07:03;58.50;;;32.80;;
67074;SDS011;53990;50.334;18.640;2022-12-05T04:09:43;56.50;;;31.80;;
67074;SDS011;53990;50.334;18.640;2022-12-05T04:12:14;59.10;;;32.90;;
67074;SDS011;53990;50.334;18.640;2022-12-05T04:14:46;58.50;;;33.20;;
67074;SDS011;53990;50.334;18.640;2022-12-05T04:19:55;57.40;;;31.40;;
67074;SDS011;53990;50.334;18.640;2022-12-05T04:22:42;56.80;;;31.30;;
67074;SDS011;53990;50.334;18.640;2022-12-05T04:25:12;53.60;;;30.70;;
67074;SDS011;53990;50.334;18.640;2022-12-05T04:28:01;54.00;;;30.10;;
67074;SDS011;53990;50.334;18.640;2022-12-05T04:30:56;51.90;;;30.20;;
67074;SDS011;53990;50.334;18.640;2022-12-05T04:34:05;56.60;;;31.20;;
67074;SDS011;53990;50.334;18.640;2022-12-05T04:36:31;55.40;;;30.80;;
67074;SDS011;53990;50.334;18.640;2022-12-05T04:39:03;54.00;;;31.10;;
67074;SDS011;53990;50.334;18.640;2022-12-05T04:41:41;53.10;;;29.80;;
67074;SDS011;53990;50.334;18.640;2022-12-05T04:46:42;57.00;;;30.80;;
67074;SDS011;53990;50.334;18.640;2022-12-05T04:49:12;53.30;;;29.20;;
67074;SDS011;53990;50.334;18.640;2022-12-05T04:51:42;53.60;;;28.50;;
67074;SDS011;53990;50.334;18.640;2022-12-05T04:54:25;58.40;;;31.30;;
67074;SDS011;53990;50.334;18.640;2022-12-05T04:56:56;55.60;;;29.90;;
67074;SDS011;53990;50.334;18.640;2022-12-05T04:59:25;48.80;;;28.30;;
67074;SDS011;53990;50.334;18.640;2022-12-05T05:01:57;54.70;;;29.80;;
67074;SDS011;53990;50.334;18.640;2022-12-05T05:04:30;59.10;;;31.60;;
67074;SDS011;53990;50.334;18.640;2022-12-05T05:07:07;55.10;;;30.10;;
67074;SDS011;53990;50.334;18.640;2022-12-05T05:09:35;53.80;;;29.50;;
67074;SDS011;53990;50.334;18.640;2022-12-05T05:12:03;54.70;;;29.30;;
67074;SDS011;53990;50.334;18.640;2022-12-05T05:14:31;53.00;;;30.10;;
67074;SDS011;53990;50.334;18.640;2022-12-05T05:16:58;58.60;;;31.70;;
67074;SDS011;53990;50.334;18.640;2022-12-05T05:19:26;61.90;;;32.70;;
67074;SDS011;53990;50.334;18.640;2022-12-05T05:21:53;55.80;;;31.60;;
67074;SDS011;53990;50.334;18.640;2022-12-05T05:24:20;47.90;;;29.00;;
67074;SDS011;53990;50.334;18.640;2022-12-05T05:26:49;50.60;;;29.10;;
67074;SDS011;53990;50.334;18.640;2022-12-05T05:29:16;51.00;;;29.80;;
67074;SDS011;53990;50.334;18.640;2022-12-05T05:31:44;53.60;;;29.90;;
67074;SDS011;53990;50.334;18.640;2022-12-05T05:34:12;55.10;;;30.20;;
67074;SDS011;53990;50.334;18.640;2022-12-05T05:36:42;51.70;;;30.40;;
67074;SDS011;53990;50.334;18.640;2022-12-05T05:39:12;75.70;;;39.40;;
67074;SDS011;53990;50.334;18.640;2022-12-05T05:41:41;54.90;;;32.20;;
67074;SDS011;53990;50.334;18.640;2022-12-05T05:44:09;50.70;;;29.80;;
67074;SDS011;53990;50.334;18.640;2022-12-05T05:46:37;55.00;;;30.90;;
67074;SDS011;53990;50.334;18.640;2022-12-05T05:49:04;54.20;;;30.70;;
67074;SDS011;53990;50.334;18.640;2022-12-05T05:51:32;57.10;;;31.20;;
67074;SDS011;53990;50.334;18.640;2022-12-05T05:53:59;54.60;;;32.30;;
67074;SDS011;53990;50.334;18.640;2022-12-05T05:56:28;53.20;;;32.20;;
67074;SDS011;53990;50.334;18.640;2022-12-05T05:58:58;60.90;;;33.30;;
67074;SDS011;53990;50.334;18.640;2022-12-05T06:01:26;57.80;;;34.40;;
67074;SDS011;53990;50.334;18.640;2022-12-05T06:03:56;57.20;;;33.80;;
67074;SDS011;53990;50.334;18.640;2022-12-05T06:06:23;60.10;;;33.60;;
67074;SDS011;53990;50.334;18.640;2022-12-05T06:08:51;57.60;;;33.90;;
67074;SDS011;53990;50.334;18.640;2022-12-05T06:11:20;54.40;;;33.40;;
67074;SDS011;53990;50.334;18.640;2022-12-05T06:13:48;57.60;;;34.20;;
67074;SDS011;53990;50.334;18.640;2022-12-05T06:16:17;63.40;;;35.50;;
67074;SDS011;53990;50.334;18.640;2022-12-05T06:18:44;60.90;;;35.10;;
67074;SDS011;53990;50.334;18.640;2022-12-05T06:21:12;62.70;;;35.80;;
67074;SDS011;53990;50.334;18.640;2022-12-05T06:23:39;63.90;;;36.40;;
67074;SDS011;53990;50.334;18.640;2022-12-05T06:26:10;59.10;;;34.90;;
67074;SDS011;53990;50.334;18.640;2022-12-05T06:28:38;63.70;;;36.90;;
67074;SDS011;53990;50.334;18.640;2022-12-05T06:31:11;58.70;;;36.50;;
67074;SDS011;53990;50.334;18.640;2022-12-05T06:33:38;61.90;;;36.30;;
67074;SDS011;53990;50.334;18.640;2022-12-05T06:36:11;65.60;;;37.80;;
67074;SDS011;53990;50.334;18.640;2022-12-05T06:38:44;62.50;;;37.60;;
67074;SDS011;53990;50.334;18.640;2022-12-05T06:41:18;63.50;;;38.20;;
67074;SDS011;53990;50.334;18.640;2022-12-05T06:43:54;64.00;;;37.90;;
67074;SDS011;53990;50.334;18.640;2022-12-05T06:46:26;65.70;;;36.50;;
67074;SDS011;53990;50.334;18.640;2022-12-05T06:48:55;62.30;;;36.40;;
67074;SDS011;53990;50.334;18.640;2022-12-05T06:51:26;65.60;;;37.90;;
67074;SDS011;53990;50.334;18.640;2022-12-05T06:54:19;64.70;;;39.00;;
67074;SDS011;53990;50.334;18.640;2022-12-05T06:56:47;70.00;;;38.70;;
67074;SDS011;53990;50.334;18.640;2022-12-05T06:59:14;64.10;;;37.00;;
67074;SDS011;53990;50.334;18.640;2022-12-05T07:01:42;64.10;;;37.90;;
67074;SDS011;53990;50.334;18.640;2022-12-05T07:04:11;64.80;;;38.00;;
67074;SDS011;53990;50.334;18.640;2022-12-05T07:06:39;65.30;;;37.40;;
67074;SDS011;53990;50.334;18.640;2022-12-05T07:09:07;62.50;;;35.70;;
67074;SDS011;53990;50.334;18.640;2022-12-05T07:11:35;59.80;;;35.40;;
67074;SDS011;53990;50.334;18.640;2022-12-05T07:14:03;65.30;;;36.40;;
67074;SDS011;53990;50.334;18.640;2022-12-05T07:16:31;58.20;;;34.00;;
67074;SDS011;53990;50.334;18.640;2022-12-05T07:18:58;66.00;;;36.60;;
67074;SDS011;53990;50.334;18.640;2022-12-05T07:21:25;67.00;;;35.90;;
67074;SDS011;53990;50.334;18.640;2022-12-05T07:23:53;63.30;;;36.30;;
67074;SDS011;53990;50.334;18.640;2022-12-05T07:26:22;53.80;;;33.20;;
67074;SDS011;53990;50.334;18.640;2022-12-05T07:28:51;60.80;;;33.80;;
67074;SDS011;53990;50.334;18.640;2022-12-05T07:31:20;61.40;;;35.40;;
67074;SDS011;53990;50.334;18.640;2022-12-05T07:33:49;56.50;;;31.60;;
67074;SDS011;53990;50.334;18.640;2022-12-05T07:36:20;60.10;;;33.40;;
67074;SDS011;53990;50.334;18.640;2022-12-05T07:38:54;60.70;;;33.70;;
67074;SDS011;53990;50.334;18.640;2022-12-05T07:41:24;58.50;;;35.00;;
67074;SDS011;53990;50.334;18.640;2022-12-05T07:43:54;60.50;;;32.90;;
67074;SDS011;53990;50.334;18.640;2022-12-05T07:46:23;57.10;;;31.20;;
67074;SDS011;53990;50.334;18.640;2022-12-05T07:48:50;61.40;;;34.50;;
67074;SDS011;53990;50.334;18.640;2022-12-05T07:51:19;56.00;;;32.40;;
67074;SDS011;53990;50.334;18.640;2022-12-05T07:53:47;59.60;;;33.10;;
67074;SDS011;53990;50.334;18.640;2022-12-05T07:56:16;64.00;;;35.20;;
67074;SDS011;53990;50.334;18.640;2022-12-05T07:58:47;56.50;;;32.60;;
67074;SDS011;53990;50.334;18.640;2022-12-05T08:01:23;52.60;;;32.40;;
67074;SDS011;53990;50.334;18.640;2022-12-05T08:03:55;62.70;;;35.20;;
67074;SDS011;53990;50.334;18.640;2022-12-05T08:06:25;61.40;;;35.00;;
67074;SDS011;53990;50.334;18.640;2022-12-05T08:08:54;59.40;;;35.30;;
67074;SDS011;53990;50.334;18.640;2022-12-05T08:11:26;59.20;;;35.30;;
67074;SDS011;53990;50.334;18.640;2022-12-05T08:13:54;61.50;;;35.90;;
67074;SDS011;53990;50.334;18.640;2022-12-05T08:16:25;63.60;;;35.70;;
67074;SDS011;53990;50.334;18.640;2022-12-05T08:18:57;68.30;;;37.50;;
67074;SDS011;53990;50.334;18.640;2022-12-05T08:21:25;62.40;;;36.60;;
67074;SDS011;53990;50.334;18.640;2022-12-05T08:23:53;61.50;;;35.80;;
67074;SDS011;53990;50.334;18.640;2022-12-05T08:26:29;61.60;;;34.80;;
67074;SDS011;53990;50.334;18.640;2022-12-05T08:29:01;60.90;;;34.10;;
67074;SDS011;53990;50.334;18.640;2022-12-05T08:31:31;62.40;;;35.10;;
67074;SDS011;53990;50.334;18.640;2022-12-05T08:33:59;58.00;;;33.60;;
67074;SDS011;53990;50.334;18.640;2022-12-05T08:36:28;57.50;;;33.80;;
67074;SDS011;53990;50.334;18.640;2022-12-05T08:38:57;60.40;;;35.30;;
67074;SDS011;53990;50.334;18.640;2022-12-05T08:41:26;63.60;;;34.90;;
67074;SDS011;53990;50.334;18.640;2022-12-05T08:43:57;62.00;;;34.80;;
67074;SDS011;53990;50.334;18.640;2022-12-05T08:46:25;59.30;;;34.00;;
67074;SDS011;53990;50.334;18.640;2022-12-05T08:48:52;56.00;;;33.50;;
67074;SDS011;53990;50.334;18.640;2022-12-05T08:51:19;51.80;;;32.20;;
67074;SDS011;53990;50.334;18.640;2022-12-05T08:53:47;57.90;;;33.70;;
67074;SDS011;53990;50.334;18.640;2022-12-05T08:56:14;58.60;;;34.10;;
67074;SDS011;53990;50.334;18.640;2022-12-05T08:58:42;52.80;;;34.00;;
67074;SDS011;53990;50.334;18.640;2022-12-05T09:01:11;53.00;;;32.90;;
67074;SDS011;53990;50.334;18.640;2022-12-05T09:03:40;53.60;;;31.90;;
67074;SDS011;53990;50.334;18.640;2022-12-05T09:06:28;54.50;;;32.50;;
67074;SDS011;53990;50.334;18.640;2022-12-05T09:09:03;52.40;;;32.40;;
67074;SDS011;53990;50.334;18.640;2022-12-05T09:11:34;54.60;;;32.40;;
67074;SDS011;53990;50.334;18.640;2022-12-05T09:14:04;54.00;;;32.50;;
67074;SDS011;53990;50.334;18.640;2022-12-05T09:16:33;52.30;;;32.60;;
67074;SDS011;53990;50.334;18.640;2022-12-05T09:19:02;57.40;;;33.60;;
67074;SDS011;53990;50.334;18.640;2022-12-05T09:21:30;57.10;;;34.30;;
67074;SDS011;53990;50.334;18.640;2022-12-05T09:23:58;55.60;;;34.30;;
67074;SDS011;53990;50.334;18.640;2022-12-05T09:26:26;55.30;;;32.90;;
67074;SDS011;53990;50.334;18.640;2022-12-05T09:28:54;57.70;;;33.50;;
67074;SDS011;53990;50.334;18.640;2022-12-05T09:31:23;56.70;;;34.40;;
67074;SDS011;53990;50.334;18.640;2022-12-05T09:33:51;53.30;;;31.60;;
67074;SDS011;53990;50.334;18.640;2022-12-05T09:36:22;54.60;;;32.00;;
67074;SDS011;53990;50.334;18.640;2022-12-05T09:38:50;56.60;;;34.50;;
67074;SDS011;53990;50.334;18.640;2022-12-05T09:50:20;55.40;;;33.00;;
67074;SDS011;53990;50.334;18.640;2022-12-05T09:56:04;57.00;;;34.30;;
67074;SDS011;53990;50.334;18.640;2022-12-05T09:58:39;60.20;;;35.00;;
67074;SDS011;53990;50.334;18.640;2022-12-05T10:04:34;60.70;;;36.30;;
67074;SDS011;53990;50.334;18.640;2022-12-05T10:07:14;63.80;;;37.20;;
67074;SDS011;53990;50.334;18.640;2022-12-05T10:12:47;61.60;;;37.50;;
67074;SDS011;53990;50.334;18.640;2022-12-05T10:15:31;61.00;;;35.70;;
67074;SDS011;53990;50.334;18.640;2022-12-05T10:18:02;65.90;;;38.30;;
67074;SDS011;53990;50.334;18.640;2022-12-05T10:20:41;65.50;;;38.70;;
67074;SDS011;53990;50.334;18.640;2022-12-05T10:23:29;61.80;;;37.60;;
67074;SDS011;53990;50.334;18.640;2022-12-05T10:26:02;64.50;;;37.70;;
67074;SDS011;53990;50.334;18.640;2022-12-05T10:28:40;64.10;;;37.50;;
67074;SDS011;53990;50.334;18.640;2022-12-05T10:31:11;59.60;;;35.80;;
67074;SDS011;53990;50.334;18.640;2022-12-05T10:34:00;60.20;;;35.30;;
67074;SDS011;53990;50.334;18.640;2022-12-05T10:36:29;56.40;;;33.60;;
67074;SDS011;53990;50.334;18.640;2022-12-05T10:38:57;57.50;;;35.10;;
67074;SDS011;53990;50.334;18.640;2022-12-05T10:41:25;58.70;;;35.90;;
67074;SDS011;53990;50.334;18.640;2022-12-05T10:43:52;53.70;;;33.20;;
67074;SDS011;53990;50.334;18.640;2022-12-05T10:46:20;56.90;;;34.20;;
67074;SDS011;53990;50.334;18.640;2022-12-05T10:48:48;59.00;;;36.70;;
67074;SDS011;53990;50.334;18.640;2022-12-05T10:51:25;59.10;;;35.50;;
67074;SDS011;53990;50.334;18.640;2022-12-05T10:53:53;62.00;;;37.00;;
67074;SDS011;53990;50.334;18.640;2022-12-05T10:56:42;61.70;;;37.50;;
67074;SDS011;53990;50.334;18.640;2022-12-05T10:59:13;60.00;;;37.00;;
67074;SDS011;53990;50.334;18.640;2022-12-05T11:01:58;62.60;;;36.80;;
67074;SDS011;53990;50.334;18.640;2022-12-05T11:04:31;61.80;;;39.00;;
67074;SDS011;53990;50.334;18.640;2022-12-05T11:07:06;61.70;;;36.90;;
67074;SDS011;53990;50.334;18.640;2022-12-05T11:09:37;58.50;;;36.90;;
67074;SDS011;53990;50.334;18.640;2022-12-05T11:12:18;57.00;;;34.70;;
67074;SDS011;53990;50.334;18.640;2022-12-05T11:14:55;56.90;;;35.40;;
67074;SDS011;53990;50.334;18.640;2022-12-05T11:17:42;63.10;;;36.60;;
67074;SDS011;53990;50.334;18.640;2022-12-05T11:22:50;56.80;;;34.90;;
67074;SDS011;53990;50.334;18.640;2022-12-05T11:25:33;56.80;;;35.00;;
67074;SDS011;53990;50.334;18.640;2022-12-05T11:31:00;54.80;;;33.50;;
67074;SDS011;53990;50.334;18.640;2022-12-05T11:33:30;61.30;;;35.10;;
67074;SDS011;53990;50.334;18.640;2022-12-05T11:36:03;61.40;;;38.00;;
67074;SDS011;53990;50.334;18.640;2022-12-05T11:38:34;61.60;;;37.50;;
67074;SDS011;53990;50.334;18.640;2022-12-05T11:44:03;60.00;;;37.00;;
67074;SDS011;53990;50.334;18.640;2022-12-05T11:51:32;63.00;;;36.90;;
67074;SDS011;53990;50.334;18.640;2022-12-05T11:56:37;62.60;;;37.00;;
67074;SDS011;53990;50.334;18.640;2022-12-05T12:08:26;62.90;;;36.70;;
67074;SDS011;53990;50.334;18.640;2022-12-05T12:22:03;60.80;;;35.20;;
67074;SDS011;53990;50.334;18.640;2022-12-05T12:27:53;63.70;;;37.80;;
67074;SDS011;53990;50.334;18.640;2022-12-05T12:36:17;67.30;;;38.30;;
67074;SDS011;53990;50.334;18.640;2022-12-05T12:39:00;66.60;;;38.00;;
67074;SDS011;53990;50.334;18.640;2022-12-05T12:41:44;63.50;;;37.70;;
67074;SDS011;53990;50.334;18.640;2022-12-05T12:47:01;61.70;;;37.70;;
67074;SDS011;53990;50.334;18.640;2022-12-05T12:52:20;66.00;;;39.50;;
67074;SDS011;53990;50.334;18.640;2022-12-05T12:55:41;69.70;;;40.30;;
67074;SDS011;53990;50.334;18.640;2022-12-05T13:04:13;69.20;;;39.40;;
67074;SDS011;53990;50.334;18.640;2022-12-05T13:06:49;68.30;;;40.90;;
67074;SDS011;53990;50.334;18.640;2022-12-05T13:15:17;71.80;;;41.30;;
67074;SDS011;53990;50.334;18.640;2022-12-05T13:17:51;69.60;;;41.60;;
67074;SDS011;53990;50.334;18.640;2022-12-05T13:20:26;72.40;;;40.90;;
67074;SDS011;53990;50.334;18.640;2022-12-05T13:24:00;71.40;;;43.00;;
67074;SDS011;53990;50.334;18.640;2022-12-05T13:26:59;68.00;;;41.00;;
67074;SDS011;53990;50.334;18.640;2022-12-05T13:29:59;72.50;;;41.90;;
67074;SDS011;53990;50.334;18.640;2022-12-05T13:32:33;72.50;;;41.40;;
67074;SDS011;53990;50.334;18.640;2022-12-05T13:37:44;71.80;;;41.90;;
67074;SDS011;53990;50.334;18.640;2022-12-05T13:43:24;71.90;;;42.70;;
67074;SDS011;53990;50.334;18.640;2022-12-05T13:46:06;72.60;;;43.20;;
67074;SDS011;53990;50.334;18.640;2022-12-05T13:48:40;73.40;;;43.70;;
67074;SDS011;53990;50.334;18.640;2022-12-05T13:51:09;78.40;;;46.50;;
67074;SDS011;53990;50.334;18.640;2022-12-05T13:53:40;78.50;;;47.10;;
67074;SDS011;53990;50.334;18.640;2022-12-05T13:58:52;79.20;;;46.80;;
67074;SDS011;53990;50.334;18.640;2022-12-05T14:04:02;81.90;;;48.90;;
67074;SDS011;53990;50.334;18.640;2022-12-05T14:17:23;83.20;;;49.60;;
67074;SDS011;53990;50.334;18.640;2022-12-05T14:20:31;80.30;;;49.00;;
67074;SDS011;53990;50.334;18.640;2022-12-05T14:25:50;89.20;;;50.70;;
67074;SDS011;53990;50.334;18.640;2022-12-05T14:28:50;84.50;;;50.20;;
67074;SDS011;53990;50.334;18.640;2022-12-05T14:31:31;81.90;;;48.40;;
67074;SDS011;53990;50.334;18.640;2022-12-05T14:34:15;87.30;;;50.60;;
67074;SDS011;53990;50.334;18.640;2022-12-05T14:39:48;81.80;;;48.70;;
67074;SDS011;53990;50.334;18.640;2022-12-05T14:42:34;82.00;;;48.70;;
67074;SDS011;53990;50.334;18.640;2022-12-05T14:45:22;85.90;;;48.20;;
67074;SDS011;53990;50.334;18.640;2022-12-05T14:47:54;84.40;;;51.40;;
67074;SDS011;53990;50.334;18.640;2022-12-05T14:50:45;80.60;;;49.10;;
67074;SDS011;53990;50.334;18.640;2022-12-05T14:55:44;86.60;;;50.20;;
67074;SDS011;53990;50.334;18.640;2022-12-05T15:01:06;81.20;;;48.60;;
67074;SDS011;53990;50.334;18.640;2022-12-05T15:03:49;81.20;;;47.90;;
67074;SDS011;53990;50.334;18.640;2022-12-05T15:06:56;81.90;;;49.40;;
67074;SDS011;53990;50.334;18.640;2022-12-05T15:12:32;84.00;;;48.40;;
67074;SDS011;53990;50.334;18.640;2022-12-05T15:18:00;88.30;;;49.10;;
67074;SDS011;53990;50.334;18.640;2022-12-05T15:26:01;81.10;;;47.00;;
67074;SDS011;53990;50.334;18.640;2022-12-05T15:28:28;84.60;;;46.80;;
67074;SDS011;53990;50.334;18.640;2022-12-05T15:31:01;85.20;;;47.80;;
67074;SDS011;53990;50.334;18.640;2022-12-05T15:35:53;78.40;;;46.70;;
67074;SDS011;53990;50.334;18.640;2022-12-05T15:38:46;77.70;;;45.60;;
67074;SDS011;53990;50.334;18.640;2022-12-05T15:41:15;83.60;;;47.60;;
67074;SDS011;53990;50.334;18.640;2022-12-05T15:43:56;82.90;;;47.70;;
67074;SDS011;53990;50.334;18.640;2022-12-05T15:46:31;87.00;;;50.60;;
67074;SDS011;53990;50.334;18.640;2022-12-05T15:49:15;85.20;;;52.70;;
67074;SDS011;53990;50.334;18.640;2022-12-05T15:52:20;87.10;;;50.50;;
67074;SDS011;53990;50.334;18.640;2022-12-05T15:54:54;92.60;;;53.40;;
67074;SDS011;53990;50.334;18.640;2022-12-05T15:57:26;96.90;;;55.20;;
67074;SDS011;53990;50.334;18.640;2022-12-05T16:00:15;93.20;;;56.80;;
67074;SDS011;53990;50.334;18.640;2022-12-05T16:02:57;91.70;;;56.00;;
67074;SDS011;53990;50.334;18.640;2022-12-05T16:05:32;108.70;;;59.80;;
67074;SDS011;53990;50.334;18.640;2022-12-05T16:08:01;97.30;;;58.30;;
67074;SDS011;53990;50.334;18.640;2022-12-05T16:10:30;99.20;;;60.10;;
67074;SDS011;53990;50.334;18.640;2022-12-05T16:13:06;95.90;;;60.10;;
67074;SDS011;53990;50.334;18.640;2022-12-05T16:15:41;100.40;;;60.10;;
67074;SDS011;53990;50.334;18.640;2022-12-05T16:18:23;103.80;;;62.20;;
67074;SDS011;53990;50.334;18.640;2022-12-05T16:20:54;101.70;;;61.00;;
67074;SDS011;53990;50.334;18.640;2022-12-05T16:23:27;104.50;;;60.50;;
67074;SDS011;53990;50.334;18.640;2022-12-05T16:28:41;115.70;;;66.90;;
67074;SDS011;53990;50.334;18.640;2022-12-05T16:31:13;115.30;;;66.80;;
67074;SDS011;53990;50.334;18.640;2022-12-05T16:33:43;131.40;;;73.30;;
67074;SDS011;53990;50.334;18.640;2022-12-05T16:36:11;137.50;;;75.60;;
67074;SDS011;53990;50.334;18.640;2022-12-05T16:38:41;129.60;;;72.30;;
67074;SDS011;53990;50.334;18.640;2022-12-05T16:41:13;115.70;;;64.90;;
67074;SDS011;53990;50.334;18.640;2022-12-05T16:43:45;115.60;;;64.70;;
67074;SDS011;53990;50.334;18.640;2022-12-05T16:49:16;116.50;;;65.00;;
67074;SDS011;53990;50.334;18.640;2022-12-05T16:51:51;119.50;;;64.30;;
67074;SDS011;53990;50.334;18.640;2022-12-05T16:54:19;115.90;;;63.90;;
67074;SDS011;53990;50.334;18.640;2022-12-05T16:56:47;129.30;;;72.30;;
67074;SDS011;53990;50.334;18.640;2022-12-05T16:59:31;129.50;;;72.40;;
67074;SDS011;53990;50.334;18.640;2022-12-05T17:01:59;131.10;;;73.80;;
67074;SDS011;53990;50.334;18.640;2022-12-05T17:04:31;120.00;;;67.10;;
67074;SDS011;53990;50.334;18.640;2022-12-05T17:09:50;137.80;;;76.30;;
67074;SDS011;53990;50.334;18.640;2022-12-05T17:12:21;141.90;;;78.90;;
67074;SDS011;53990;50.334;18.640;2022-12-05T17:14:50;138.90;;;76.30;;
67074;SDS011;53990;50.334;18.640;2022-12-05T17:17:17;138.50;;;74.60;;
67074;SDS011;53990;50.334;18.640;2022-12-05T17:19:45;133.40;;;74.60;;
67074;SDS011;53990;50.334;18.640;2022-12-05T17:22:20;119.90;;;70.00;;
67074;SDS011;53990;50.334;18.640;2022-12-05T17:25:00;118.50;;;67.30;;
67074;SDS011;53990;50.334;18.640;2022-12-05T17:27:29;112.80;;;65.10;;
67074;SDS011;53990;50.334;18.640;2022-12-05T17:30:07;111.80;;;64.00;;